createdAt,value
2018-11-06T00:01:10.997Z,99717.06
2018-11-06T00:06:08.448Z,99709.98
2018-11-06T00:11:06.700Z,99702.78
2018-11-06T00:16:13.512Z,99704.10
2018-11-06T00:21:10.990Z,99695.66
2018-11-06T00:26:08.495Z,99697.75
2018-11-06T00:31:05.929Z,99690.27
2018-11-06T00:36:03.360Z,99672.91
2018-11-06T00:41:00.800Z,99678.16
2018-11-06T00:46:10.882Z,99682.48
2018-11-06T00:51:08.367Z,99681.81
2018-11-06T00:56:05.817Z,99703.58
2018-11-06T01:01:03.299Z,99694.77
2018-11-06T01:06:00.718Z,99707.02
2018-11-06T01:10:58.153Z,99703.87
2018-11-06T01:16:03.180Z,99700.75
2018-11-06T01:21:00.660Z,99711.65
2018-11-06T01:25:58.129Z,99713.20
2018-11-06T01:30:55.563Z,99721.23
2018-11-06T01:35:52.976Z,99722.79
2018-11-06T01:40:50.421Z,99724.49
2018-11-06T01:45:54.514Z,99720.13
2018-11-06T01:50:51.997Z,99710.37
2018-11-06T01:55:49.424Z,99701.58
2018-11-06T02:00:46.905Z,99696.88
2018-11-06T02:05:44.334Z,99695.38
2018-11-06T02:10:41.744Z,99700.95
2018-11-06T02:15:42.109Z,99700.67
2018-11-06T02:20:39.605Z,99701.38
2018-11-06T02:25:37.046Z,99718.10
2018-11-06T02:30:34.504Z,99713.58
2018-11-06T02:35:31.929Z,99708.47
2018-11-06T02:40:29.364Z,99705.34
2018-11-06T02:45:26.796Z,99716.97
2018-11-06T02:50:24.229Z,99713.05
2018-11-06T02:55:21.664Z,99719.41
2018-11-06T03:00:19.099Z,99732.81
2018-11-06T03:05:16.532Z,99724.52
2018-11-06T03:10:14.657Z,99736.50
2018-11-06T03:15:12.956Z,99741.11
2018-11-06T03:20:11.153Z,99740.80
2018-11-06T03:25:08.616Z,99741.08
2018-11-06T03:30:08.325Z,99730.02
2018-11-06T03:35:06.392Z,99732.61
2018-11-06T03:40:04.194Z,99741.11
2018-11-06T03:45:01.636Z,99744.98
2018-11-06T03:49:59.071Z,99749.30
2018-11-06T03:54:56.640Z,99746.27
2018-11-06T03:59:54.092Z,99749.24
2018-11-06T04:04:51.521Z,99754.75
2018-11-06T04:09:48.978Z,99764.73
2018-11-06T04:14:46.408Z,99766.72
2018-11-06T04:19:43.860Z,99767.31
2018-11-06T04:24:43.335Z,99767.94
2018-11-06T04:29:40.832Z,99768.86
2018-11-06T04:34:38.269Z,99769.61
2018-11-06T04:39:35.713Z,99768.02
2018-11-06T04:44:33.156Z,99769.17
2018-11-06T04:49:30.661Z,99769.45
2018-11-06T04:54:28.087Z,99770.39
2018-11-06T04:59:25.532Z,99750.81
2018-11-06T05:04:22.985Z,99746.39
2018-11-06T05:09:20.435Z,99748.34
2018-11-06T05:14:17.899Z,99748.25
2018-11-06T05:19:15.427Z,99748.21
2018-11-06T05:24:12.848Z,99748.73
2018-11-06T05:29:10.364Z,99737.20
2018-11-06T05:34:07.805Z,99734.00
2018-11-06T05:39:07.662Z,99744.13
2018-11-06T05:44:05.212Z,99743.36
2018-11-06T05:49:02.549Z,99753.38
2018-11-06T05:54:00.007Z,99760.74
2018-11-06T05:58:57.550Z,99765.52
2018-11-06T06:03:55.040Z,99770.31
2018-11-06T06:08:52.527Z,99770.52
2018-11-06T06:13:49.989Z,99770.29
2018-11-06T06:18:47.561Z,99777.95
2018-11-06T06:23:45.005Z,99780.17
2018-11-06T06:28:42.458Z,99787.09
2018-11-06T06:33:39.922Z,99800.47
2018-11-06T06:38:37.406Z,99796.52
2018-11-06T06:43:34.868Z,99793.63
2018-11-06T06:48:32.320Z,99794.03
2018-11-06T06:53:29.812Z,99791.77
2018-11-06T06:58:27.255Z,99793.23
2018-11-06T07:03:24.942Z,99782.86
2018-11-06T07:08:22.436Z,99782.42
2018-11-06T07:13:19.907Z,99787.94
2018-11-06T07:18:17.363Z,99796.70
2018-11-06T07:23:14.821Z,99809.00
2018-11-06T07:28:12.296Z,99823.55
2018-11-06T07:33:09.728Z,99831.20
2018-11-06T07:38:07.185Z,99827.19
2018-11-06T07:43:04.736Z,99836.45
2018-11-06T07:48:02.185Z,99849.45
2018-11-06T07:52:59.636Z,99853.08
2018-11-06T07:57:57.089Z,99856.91
2018-11-06T08:02:54.616Z,99852.84
2018-11-06T08:07:52.420Z,99846.52
2018-11-06T08:12:55.188Z,99836.73
2018-11-06T08:17:52.641Z,99833.84
2018-11-06T08:22:50.118Z,99819.52
2018-11-06T08:27:47.626Z,99813.65
2018-11-06T08:32:45.432Z,99819.17
2018-11-06T08:37:42.967Z,99834.52
2018-11-06T08:42:40.495Z,99840.17
2018-11-06T08:47:38.265Z,99837.28
2018-11-06T08:52:35.752Z,99836.38
2018-11-06T08:57:33.262Z,99849.48
2018-11-06T09:02:30.756Z,99849.42
2018-11-06T09:07:28.221Z,99859.41
2018-11-06T09:12:25.671Z,99858.41
2018-11-06T09:17:23.108Z,99835.82
2018-11-06T09:22:20.596Z,99825.02
2018-11-06T09:27:18.038Z,99824.33
2018-11-06T09:32:15.549Z,99831.95
2018-11-06T09:37:13.013Z,99828.07
2018-11-06T09:42:10.484Z,99832.58
2018-11-06T09:47:07.955Z,99827.52
2018-11-06T09:52:05.477Z,99826.43
2018-11-06T09:57:02.939Z,99821.62
2018-11-06T10:02:00.432Z,99815.30
2018-11-06T10:06:58.161Z,99818.73
2018-11-06T10:11:55.456Z,99807.92
2018-11-06T10:16:53.087Z,99812.50
2018-11-06T10:21:52.385Z,99814.81
2018-11-06T10:26:50.010Z,99810.19
2018-11-06T10:31:47.473Z,99812.36
2018-11-06T10:36:45.030Z,99805.73
2018-11-06T10:41:42.768Z,99807.73
2018-11-06T10:46:42.135Z,99805.45
2018-11-06T10:51:39.822Z,99801.80
2018-11-06T10:56:37.258Z,99793.92
2018-11-06T11:01:40.261Z,99795.87
2018-11-06T11:06:37.709Z,99788.99
2018-11-06T11:11:35.233Z,99781.69
2018-11-06T11:16:34.018Z,99783.12
2018-11-06T11:21:31.579Z,99776.79
2018-11-06T11:26:29.077Z,99766.39
2018-11-06T11:31:26.603Z,99749.37
2018-11-06T11:36:24.365Z,99733.50
2018-11-06T11:41:21.844Z,99724.30
2018-11-06T11:46:24.230Z,99727.64
2018-11-06T11:51:21.727Z,99731.02
2018-11-06T11:56:19.194Z,99725.77
2018-11-06T12:01:16.654Z,99725.23
2018-11-06T12:06:14.130Z,99717.52
2018-11-06T12:11:11.600Z,99723.62
2018-11-06T12:16:22.780Z,99733.50
2018-11-06T12:21:20.235Z,99733.70
2018-11-06T12:26:17.712Z,99722.41
2018-11-06T12:31:15.257Z,99719.87
2018-11-06T12:36:12.709Z,99719.59
2018-11-06T12:41:10.438Z,99718.67
2018-11-06T12:51:17.353Z,99717.02
2018-11-06T12:56:14.862Z,99718.53
2018-11-06T13:01:13.795Z,99716.41
2018-11-06T13:06:13.287Z,99712.33
2018-11-06T13:11:11.885Z,99709.07
2018-11-06T13:16:22.725Z,99698.77
2018-11-06T13:21:21.420Z,99691.93
2018-11-06T13:26:20.069Z,99700.02
2018-11-06T13:31:18.713Z,99695.94
2018-11-06T13:36:17.113Z,99687.50
2018-11-06T13:41:15.005Z,99682.64
2018-11-06T13:46:17.511Z,99681.59
2018-11-06T13:51:16.503Z,99679.23
2018-11-06T13:56:14.655Z,99673.16
2018-11-06T14:01:13.916Z,99676.20
2018-11-06T14:06:14.094Z,99684.11
2018-11-06T14:11:16.127Z,99685.59
2018-11-06T14:16:17.185Z,99689.58
2018-11-06T14:21:17.940Z,99690.28
2018-11-06T14:26:17.854Z,99681.38
2018-11-06T14:31:15.880Z,99686.33
2018-11-06T14:36:13.741Z,99690.46
2018-11-06T14:41:11.607Z,99690.93
2018-11-06T14:46:12.952Z,99691.86
2018-11-06T14:51:10.673Z,99690.36
2018-11-06T14:56:08.211Z,99695.13
2018-11-06T15:01:05.682Z,99684.30
2018-11-06T15:06:03.151Z,99686.06
2018-11-06T15:11:00.551Z,99687.73
2018-11-06T15:16:03.600Z,99683.63
2018-11-06T15:21:01.165Z,99687.11
2018-11-06T15:25:58.610Z,99689.66
2018-11-06T15:30:56.065Z,99684.53
2018-11-06T15:35:53.539Z,99688.03
2018-11-06T15:40:51.055Z,99693.42
2018-11-06T15:46:00.907Z,99689.16
2018-11-06T15:50:58.521Z,99678.97
2018-11-06T15:55:55.995Z,99677.21
2018-11-06T16:00:53.486Z,99669.14
2018-11-06T16:05:51.122Z,99672.84
2018-11-06T16:10:50.682Z,99676.06
2018-11-06T16:15:50.574Z,99678.59
2018-11-06T16:20:48.161Z,99682.25
2018-11-06T16:25:45.561Z,99680.44
2018-11-06T16:30:43.834Z,99689.19
2018-11-06T16:35:41.367Z,99691.84
2018-11-06T16:40:38.810Z,99691.44
2018-11-06T16:45:36.254Z,99688.77
2018-11-06T16:50:33.688Z,99696.28
2018-11-06T16:55:31.125Z,99691.98
2018-11-06T17:00:28.768Z,99704.06
2018-11-06T17:05:26.086Z,99706.47
2018-11-06T17:10:23.532Z,99712.81
2018-11-06T17:15:22.017Z,99714.37
2018-11-06T17:20:19.993Z,99712.59
2018-11-06T17:25:18.672Z,99708.69
2018-11-06T17:30:17.072Z,99717.39
2018-11-06T17:35:16.638Z,99718.73
2018-11-06T17:40:15.348Z,99722.78
2018-11-06T17:45:14.419Z,99722.08
2018-11-06T17:50:14.050Z,99717.75
2018-11-06T17:55:12.871Z,99710.77
2018-11-06T18:00:14.033Z,99708.61
2018-11-06T18:05:12.441Z,99710.80
2018-11-06T18:10:11.772Z,99705.50
2018-11-06T18:15:09.204Z,99698.88
2018-11-06T18:20:07.422Z,99698.57
2018-11-06T18:25:05.352Z,99687.80
2018-11-06T18:30:02.844Z,99687.50
2018-11-06T18:35:00.280Z,99692.91
2018-11-06T18:39:57.721Z,99688.66
2018-11-06T18:44:55.166Z,99693.04
2018-11-06T18:49:52.682Z,99693.25
2018-11-06T18:54:50.080Z,99693.02
2018-11-06T18:59:47.514Z,99692.50
2018-11-06T19:04:44.952Z,99685.31
2018-11-06T19:09:42.381Z,99687.11
2018-11-06T19:14:39.920Z,99683.73
2018-11-06T19:19:37.356Z,99690.95
2018-11-06T19:24:34.896Z,99694.00
2018-11-06T19:29:32.337Z,99697.95
2018-11-06T19:34:29.769Z,99693.72
2018-11-06T19:39:27.212Z,99698.63
2018-11-06T19:44:24.690Z,99699.94
2018-11-06T19:49:22.127Z,99704.45
2018-11-06T19:54:19.714Z,99701.84
2018-11-06T19:59:18.592Z,99713.19
2018-11-06T20:04:16.036Z,99721.01
2018-11-06T20:09:14.555Z,99744.30
2018-11-06T20:14:12.025Z,99747.76
2018-11-06T20:19:09.488Z,99748.47
2018-11-06T20:24:07.003Z,99757.72
2018-11-06T20:29:04.501Z,99753.62
2018-11-06T20:34:01.960Z,99746.24
2018-11-06T20:39:00.539Z,99754.43
2018-11-06T20:43:58.058Z,99754.55
2018-11-06T20:48:55.559Z,99757.80
2018-11-06T20:53:53.061Z,99756.81
2018-11-06T20:58:50.580Z,99757.63
2018-11-06T21:03:48.081Z,99759.51
2018-11-06T21:08:45.653Z,99754.88
2018-11-06T21:13:43.215Z,99762.86
2018-11-06T21:18:42.065Z,99755.58
2018-11-06T21:23:41.725Z,99752.22
2018-11-06T21:28:41.241Z,99752.02
2018-11-06T21:33:42.133Z,99763.44
2018-11-06T21:38:40.815Z,99764.66
2018-11-06T21:43:40.031Z,99765.25
2018-11-06T21:48:40.354Z,99759.02
2018-11-06T21:53:37.865Z,99748.60
2018-11-06T21:58:35.425Z,99747.88
2018-11-06T22:03:32.902Z,99741.30
2018-11-06T22:08:30.344Z,99744.20
2018-11-06T22:13:27.801Z,99739.64
2018-11-06T22:18:25.273Z,99735.41
2018-11-06T22:23:22.814Z,99746.31
2018-11-06T22:28:20.236Z,99727.48
2018-11-06T22:33:17.704Z,99731.13
2018-11-06T22:38:15.141Z,99752.14
2018-11-06T22:43:12.576Z,99757.15
2018-11-06T22:48:10.118Z,99762.34
2018-11-06T22:53:07.614Z,99757.59
2018-11-06T22:58:05.288Z,99756.81
2018-11-06T23:03:07.296Z,99761.97
2018-11-06T23:08:10.256Z,99764.20
2018-11-06T23:13:07.949Z,99761.09
2018-11-06T23:18:05.526Z,99759.13
2018-11-06T23:23:03.009Z,99760.84
2018-11-06T23:28:02.909Z,99759.22
2018-11-06T23:33:01.843Z,99771.55
2018-11-06T23:38:00.389Z,99767.30
2018-11-06T23:42:57.876Z,99759.58
2018-11-06T23:47:56.304Z,99767.31
2018-11-06T23:52:53.744Z,99764.83
2018-11-06T23:57:51.669Z,99763.93
